sensor_id;sensor_type;location;lat;lon;timestamp;temperature;humidity
52275;DHT22;38228;50.940;4.024;2022-12-10T00:01:47;1.10;99.90
52275;DHT22;38228;50.940;4.024;2022-12-10T00:04:13;1.20;99.90
52275;DHT22;38228;50.940;4.024;2022-12-10T00:06:39;1.00;99.90
52275;DHT22;38228;50.940;4.024;2022-12-10T00:09:05;1.00;99.90
52275;DHT22;38228;50.940;4.024;2022-12-10T00:11:32;0.90;99.90
52275;DHT22;38228;50.940;4.024;2022-12-10T00:13:57;1.00;99.90
52275;DHT22;38228;50.940;4.024;2022-12-10T00:16:24;1.10;99.90
52275;DHT22;38228;50.940;4.024;2022-12-10T00:18:50;1.00;99.90
52275;DHT22;38228;50.940;4.024;2022-12-10T00:21:17;1.00;99.90
52275;DHT22;38228;50.940;4.024;2022-12-10T00:23:43;1.00;99.90
52275;DHT22;38228;50.940;4.024;2022-12-10T00:26:13;0.80;99.90
52275;DHT22;38228;50.940;4.024;2022-12-10T00:28:39;0.90;99.90
52275;DHT22;38228;50.940;4.024;2022-12-10T00:31:06;0.90;99.90
52275;DHT22;38228;50.940;4.024;2022-12-10T00:33:33;1.00;99.90
52275;DHT22;38228;50.940;4.024;2022-12-10T00:36:05;1.10;99.90
52275;DHT22;38228;50.940;4.024;2022-12-10T00:38:31;1.10;99.90
52275;DHT22;38228;50.940;4.024;2022-12-10T00:40:57;1.20;99.90
52275;DHT22;38228;50.940;4.024;2022-12-10T00:43:22;1.10;99.90
52275;DHT22;38228;50.940;4.024;2022-12-10T00:45:48;1.00;99.90
52275;DHT22;38228;50.940;4.024;2022-12-10T00:48:13;0.80;99.90
52275;DHT22;38228;50.940;4.024;2022-12-10T00:50:39;0.80;99.90
52275;DHT22;38228;50.940;4.024;2022-12-10T00:53:04;0.80;99.90
52275;DHT22;38228;50.940;4.024;2022-12-10T00:55:30;1.00;99.90
52275;DHT22;38228;50.940;4.024;2022-12-10T00:57:55;1.10;99.90
52275;DHT22;38228;50.940;4.024;2022-12-10T01:00:21;1.10;99.90
52275;DHT22;38228;50.940;4.024;2022-12-10T01:02:46;1.10;99.90
52275;DHT22;38228;50.940;4.024;2022-12-10T01:05:12;1.00;99.90
52275;DHT22;38228;50.940;4.024;2022-12-10T01:07:37;1.20;99.90
52275;DHT22;38228;50.940;4.024;2022-12-10T01:10:03;1.20;99.90
52275;DHT22;38228;50.940;4.024;2022-12-10T01:12:29;1.30;99.90
52275;DHT22;38228;50.940;4.024;2022-12-10T01:14:54;1.20;99.90
52275;DHT22;38228;50.940;4.024;2022-12-10T01:17:20;1.30;99.90
52275;DHT22;38228;50.940;4.024;2022-12-10T01:19:46;1.20;99.90
52275;DHT22;38228;50.940;4.024;2022-12-10T01:22:12;1.20;99.90
52275;DHT22;38228;50.940;4.024;2022-12-10T01:24:38;1.00;99.90
52275;DHT22;38228;50.940;4.024;2022-12-10T01:27:03;1.00;99.90
52275;DHT22;38228;50.940;4.024;2022-12-10T01:29:29;1.10;99.90
52275;DHT22;38228;50.940;4.024;2022-12-10T01:31:55;0.90;99.90
52275;DHT22;38228;50.940;4.024;2022-12-10T01:34:21;0.80;99.90
52275;DHT22;38228;50.940;4.024;2022-12-10T01:36:51;0.90;99.90
52275;DHT22;38228;50.940;4.024;2022-12-10T01:39:17;0.90;99.90
52275;DHT22;38228;50.940;4.024;2022-12-10T01:41:47;1.00;99.90
52275;DHT22;38228;50.940;4.024;2022-12-10T01:46:42;1.20;99.90
52275;DHT22;38228;50.940;4.024;2022-12-10T01:49:09;1.30;99.90
52275;DHT22;38228;50.940;4.024;2022-12-10T01:51:36;1.10;99.90
52275;DHT22;38228;50.940;4.024;2022-12-10T01:54:03;0.90;99.90
52275;DHT22;38228;50.940;4.024;2022-12-10T01:56:29;0.90;99.90
52275;DHT22;38228;50.940;4.024;2022-12-10T01:58:56;0.70;99.90
52275;DHT22;38228;50.940;4.024;2022-12-10T02:06:41;0.90;99.90
52275;DHT22;38228;50.940;4.024;2022-12-10T02:09:15;0.90;99.90
52275;DHT22;38228;50.940;4.024;2022-12-10T02:11:45;1.00;99.90
52275;DHT22;38228;50.940;4.024;2022-12-10T02:17:14;1.00;99.90
52275;DHT22;38228;50.940;4.024;2022-12-10T02:22:06;1.00;99.90
52275;DHT22;38228;50.940;4.024;2022-12-10T02:24:33;1.00;99.90
52275;DHT22;38228;50.940;4.024;2022-12-10T02:29:28;1.00;99.90
52275;DHT22;38228;50.940;4.024;2022-12-10T02:31:56;0.90;99.90
52275;DHT22;38228;50.940;4.024;2022-12-10T02:34:24;1.10;99.90
52275;DHT22;38228;50.940;4.024;2022-12-10T02:36:51;0.90;99.90
52275;DHT22;38228;50.940;4.024;2022-12-10T02:39:20;0.90;99.90
52275;DHT22;38228;50.940;4.024;2022-12-10T02:41:50;0.80;99.90
52275;DHT22;38228;50.940;4.024;2022-12-10T02:44:17;0.90;99.90
52275;DHT22;38228;50.940;4.024;2022-12-10T02:46:44;0.90;99.90
52275;DHT22;38228;50.940;4.024;2022-12-10T02:49:11;1.00;99.90
52275;DHT22;38228;50.940;4.024;2022-12-10T02:51:38;1.10;99.90
52275;DHT22;38228;50.940;4.024;2022-12-10T02:54:06;1.10;99.90
52275;DHT22;38228;50.940;4.024;2022-12-10T03:01:33;0.90;99.90
52275;DHT22;38228;50.940;4.024;2022-12-10T03:04:01;0.80;99.90
52275;DHT22;38228;50.940;4.024;2022-12-10T03:06:35;0.80;99.90
52275;DHT22;38228;50.940;4.024;2022-12-10T03:09:04;0.70;99.90
52275;DHT22;38228;50.940;4.024;2022-12-10T03:11:31;0.60;99.90
52275;DHT22;38228;50.940;4.024;2022-12-10T03:14:00;0.60;99.90
52275;DHT22;38228;50.940;4.024;2022-12-10T03:16:32;0.60;99.90
52275;DHT22;38228;50.940;4.024;2022-12-10T03:19:00;0.70;99.90
52275;DHT22;38228;50.940;4.024;2022-12-10T03:21:26;0.80;99.90
52275;DHT22;38228;50.940;4.024;2022-12-10T03:23:53;0.70;99.90
52275;DHT22;38228;50.940;4.024;2022-12-10T03:26:19;0.70;99.90
52275;DHT22;38228;50.940;4.024;2022-12-10T03:28:50;0.80;99.90
52275;DHT22;38228;50.940;4.024;2022-12-10T03:31:18;0.70;99.90
52275;DHT22;38228;50.940;4.024;2022-12-10T03:33:44;0.80;99.90
52275;DHT22;38228;50.940;4.024;2022-12-10T03:36:10;0.80;99.90
52275;DHT22;38228;50.940;4.024;2022-12-10T03:38:36;0.80;99.90
52275;DHT22;38228;50.940;4.024;2022-12-10T03:41:03;0.90;99.90
52275;DHT22;38228;50.940;4.024;2022-12-10T03:43:28;0.70;99.90
52275;DHT22;38228;50.940;4.024;2022-12-10T03:45:54;0.80;99.90
52275;DHT22;38228;50.940;4.024;2022-12-10T03:48:19;0.80;99.90
52275;DHT22;38228;50.940;4.024;2022-12-10T03:50:45;0.90;99.90
52275;DHT22;38228;50.940;4.024;2022-12-10T03:53:10;0.80;99.90
52275;DHT22;38228;50.940;4.024;2022-12-10T03:55:36;0.90;99.90
52275;DHT22;38228;50.940;4.024;2022-12-10T03:58:03;1.00;99.90
52275;DHT22;38228;50.940;4.024;2022-12-10T04:00:28;1.00;99.90
52275;DHT22;38228;50.940;4.024;2022-12-10T04:02:54;1.10;99.90
52275;DHT22;38228;50.940;4.024;2022-12-10T04:05:20;1.00;99.90
52275;DHT22;38228;50.940;4.024;2022-12-10T04:07:45;0.70;99.90
52275;DHT22;38228;50.940;4.024;2022-12-10T04:10:11;0.60;99.90
52275;DHT22;38228;50.940;4.024;2022-12-10T04:12:37;0.50;99.90
52275;DHT22;38228;50.940;4.024;2022-12-10T04:15:03;0.50;99.90
52275;DHT22;38228;50.940;4.024;2022-12-10T04:17:47;0.50;99.90
52275;DHT22;38228;50.940;4.024;2022-12-10T04:20:13;0.70;99.90
52275;DHT22;38228;50.940;4.024;2022-12-10T04:22:57;0.90;99.90
52275;DHT22;38228;50.940;4.024;2022-12-10T04:25:41;0.90;99.90
52275;DHT22;38228;50.940;4.024;2022-12-10T04:28:26;0.90;99.90
52275;DHT22;38228;50.940;4.024;2022-12-10T04:30:51;1.00;99.90
52275;DHT22;38228;50.940;4.024;2022-12-10T04:33:17;1.10;99.90
52275;DHT22;38228;50.940;4.024;2022-12-10T04:35:42;1.10;99.90
52275;DHT22;38228;50.940;4.024;2022-12-10T04:38:08;1.00;99.90
52275;DHT22;38228;50.940;4.024;2022-12-10T04:40:33;1.10;99.90
52275;DHT22;38228;50.940;4.024;2022-12-10T04:42:59;1.10;99.90
52275;DHT22;38228;50.940;4.024;2022-12-10T04:45:24;0.80;99.90
52275;DHT22;38228;50.940;4.024;2022-12-10T04:47:50;0.80;99.90
52275;DHT22;38228;50.940;4.024;2022-12-10T04:50:15;0.70;99.90
52275;DHT22;38228;50.940;4.024;2022-12-10T04:52:41;0.70;99.90
52275;DHT22;38228;50.940;4.024;2022-12-10T04:55:06;1.00;99.90
52275;DHT22;38228;50.940;4.024;2022-12-10T04:57:32;1.00;99.90
52275;DHT22;38228;50.940;4.024;2022-12-10T04:59:58;1.00;99.90
52275;DHT22;38228;50.940;4.024;2022-12-10T05:02:23;1.00;99.90
52275;DHT22;38228;50.940;4.024;2022-12-10T05:04:49;1.10;99.90
52275;DHT22;38228;50.940;4.024;2022-12-10T05:07:14;1.10;99.90
52275;DHT22;38228;50.940;4.024;2022-12-10T05:09:40;1.00;99.90
52275;DHT22;38228;50.940;4.024;2022-12-10T05:12:05;1.00;99.90
52275;DHT22;38228;50.940;4.024;2022-12-10T05:14:31;0.70;99.90
52275;DHT22;38228;50.940;4.024;2022-12-10T05:16:57;0.70;99.90
52275;DHT22;38228;50.940;4.024;2022-12-10T05:19:22;0.70;99.90
52275;DHT22;38228;50.940;4.024;2022-12-10T05:21:48;0.80;99.90
52275;DHT22;38228;50.940;4.024;2022-12-10T05:24:32;0.80;99.90
52275;DHT22;38228;50.940;4.024;2022-12-10T05:26:58;0.80;99.90
52275;DHT22;38228;50.940;4.024;2022-12-10T05:29:24;0.90;99.90
52275;DHT22;38228;50.940;4.024;2022-12-10T05:31:49;0.80;99.90
52275;DHT22;38228;50.940;4.024;2022-12-10T05:34:15;0.90;99.90
52275;DHT22;38228;50.940;4.024;2022-12-10T05:36:40;1.00;99.90
52275;DHT22;38228;50.940;4.024;2022-12-10T05:39:06;0.80;99.90
52275;DHT22;38228;50.940;4.024;2022-12-10T05:41:33;0.80;99.90
52275;DHT22;38228;50.940;4.024;2022-12-10T05:43:59;1.00;99.90
52275;DHT22;38228;50.940;4.024;2022-12-10T05:46:26;1.00;99.90
52275;DHT22;38228;50.940;4.024;2022-12-10T05:48:52;0.80;99.90
52275;DHT22;38228;50.940;4.024;2022-12-10T05:51:19;1.00;99.90
52275;DHT22;38228;50.940;4.024;2022-12-10T05:53:45;0.90;99.90
52275;DHT22;38228;50.940;4.024;2022-12-10T05:56:12;0.70;99.90
52275;DHT22;38228;50.940;4.024;2022-12-10T05:58:38;0.50;99.90
52275;DHT22;38228;50.940;4.024;2022-12-10T06:01:08;0.50;99.90
52275;DHT22;38228;50.940;4.024;2022-12-10T06:03:33;0.50;99.90
52275;DHT22;38228;50.940;4.024;2022-12-10T06:05:59;0.40;99.90
52275;DHT22;38228;50.940;4.024;2022-12-10T06:08:25;0.40;99.90
52275;DHT22;38228;50.940;4.024;2022-12-10T06:10:50;0.50;99.90
52275;DHT22;38228;50.940;4.024;2022-12-10T06:13:16;0.50;99.90
52275;DHT22;38228;50.940;4.024;2022-12-10T06:15:41;0.60;99.90
52275;DHT22;38228;50.940;4.024;2022-12-10T06:18:07;0.70;99.90
52275;DHT22;38228;50.940;4.024;2022-12-10T06:20:33;0.80;99.90
52275;DHT22;38228;50.940;4.024;2022-12-10T06:22:58;0.80;99.90
52275;DHT22;38228;50.940;4.024;2022-12-10T06:25:24;0.90;99.90
52275;DHT22;38228;50.940;4.024;2022-12-10T06:27:49;1.00;99.90
52275;DHT22;38228;50.940;4.024;2022-12-10T06:30:15;0.90;99.90
52275;DHT22;38228;50.940;4.024;2022-12-10T06:32:41;0.80;99.90
52275;DHT22;38228;50.940;4.024;2022-12-10T06:35:08;0.80;99.90
52275;DHT22;38228;50.940;4.024;2022-12-10T06:37:34;0.70;99.90
52275;DHT22;38228;50.940;4.024;2022-12-10T06:40:00;0.70;99.90
52275;DHT22;38228;50.940;4.024;2022-12-10T06:42:25;0.70;99.90
52275;DHT22;38228;50.940;4.024;2022-12-10T06:44:51;0.70;99.90
52275;DHT22;38228;50.940;4.024;2022-12-10T06:47:16;0.60;99.90
52275;DHT22;38228;50.940;4.024;2022-12-10T06:49:42;0.80;99.90
52275;DHT22;38228;50.940;4.024;2022-12-10T06:52:07;0.70;99.90
52275;DHT22;38228;50.940;4.024;2022-12-10T06:54:33;0.80;99.90
52275;DHT22;38228;50.940;4.024;2022-12-10T06:56:58;0.90;99.90
52275;DHT22;38228;50.940;4.024;2022-12-10T06:59:24;0.90;99.90
52275;DHT22;38228;50.940;4.024;2022-12-10T07:01:50;0.80;99.90
52275;DHT22;38228;50.940;4.024;2022-12-10T07:04:15;0.80;99.90
52275;DHT22;38228;50.940;4.024;2022-12-10T07:06:41;0.60;99.90
52275;DHT22;38228;50.940;4.024;2022-12-10T07:09:07;0.70;99.90
52275;DHT22;38228;50.940;4.024;2022-12-10T07:11:32;0.50;99.90
52275;DHT22;38228;50.940;4.024;2022-12-10T07:13:58;0.40;99.90
52275;DHT22;38228;50.940;4.024;2022-12-10T07:16:25;0.50;99.90
52275;DHT22;38228;50.940;4.024;2022-12-10T07:18:51;0.60;99.90
52275;DHT22;38228;50.940;4.024;2022-12-10T07:21:25;0.70;99.90
52275;DHT22;38228;50.940;4.024;2022-12-10T07:23:51;0.70;99.90
52275;DHT22;38228;50.940;4.024;2022-12-10T07:26:18;0.70;99.90
52275;DHT22;38228;50.940;4.024;2022-12-10T07:28:44;0.60;99.90
52275;DHT22;38228;50.940;4.024;2022-12-10T07:31:10;0.50;99.90
52275;DHT22;38228;50.940;4.024;2022-12-10T07:33:35;0.30;99.90
52275;DHT22;38228;50.940;4.024;2022-12-10T07:36:05;0.30;99.90
52275;DHT22;38228;50.940;4.024;2022-12-10T07:38:31;0.40;99.90
52275;DHT22;38228;50.940;4.024;2022-12-10T07:40:56;0.40;99.90
52275;DHT22;38228;50.940;4.024;2022-12-10T07:43:22;0.50;99.90
52275;DHT22;38228;50.940;4.024;2022-12-10T07:45:48;0.60;99.90
52275;DHT22;38228;50.940;4.024;2022-12-10T07:48:13;0.70;99.90
52275;DHT22;38228;50.940;4.024;2022-12-10T07:50:39;0.80;99.90
52275;DHT22;38228;50.940;4.024;2022-12-10T07:53:05;0.90;99.90
52275;DHT22;38228;50.940;4.024;2022-12-10T07:55:30;0.80;99.90
52275;DHT22;38228;50.940;4.024;2022-12-10T07:57:56;0.90;99.90
52275;DHT22;38228;50.940;4.024;2022-12-10T08:00:21;1.00;99.90
52275;DHT22;38228;50.940;4.024;2022-12-10T08:02:47;1.00;99.90
52275;DHT22;38228;50.940;4.024;2022-12-10T08:05:13;1.10;99.90
52275;DHT22;38228;50.940;4.024;2022-12-10T08:07:38;1.10;99.90
52275;DHT22;38228;50.940;4.024;2022-12-10T08:10:04;1.10;99.90
52275;DHT22;38228;50.940;4.024;2022-12-10T08:12:29;1.10;99.90
52275;DHT22;38228;50.940;4.024;2022-12-10T08:14:55;1.10;99.90
52275;DHT22;38228;50.940;4.024;2022-12-10T08:17:20;1.10;99.90
52275;DHT22;38228;50.940;4.024;2022-12-10T08:19:46;1.00;99.90
52275;DHT22;38228;50.940;4.024;2022-12-10T08:22:12;1.00;99.90
52275;DHT22;38228;50.940;4.024;2022-12-10T08:24:37;1.20;99.90
52275;DHT22;38228;50.940;4.024;2022-12-10T08:27:03;0.90;99.90
52275;DHT22;38228;50.940;4.024;2022-12-10T08:29:28;1.00;99.90
52275;DHT22;38228;50.940;4.024;2022-12-10T08:31:54;1.00;99.90
52275;DHT22;38228;50.940;4.024;2022-12-10T08:34:19;1.20;99.90
52275;DHT22;38228;50.940;4.024;2022-12-10T08:36:45;1.20;99.90
52275;DHT22;38228;50.940;4.024;2022-12-10T08:39:11;1.20;99.90
52275;DHT22;38228;50.940;4.024;2022-12-10T08:41:40;1.30;99.90
52275;DHT22;38228;50.940;4.024;2022-12-10T08:44:06;1.50;99.90
52275;DHT22;38228;50.940;4.024;2022-12-10T08:46:32;1.50;99.90
52275;DHT22;38228;50.940;4.024;2022-12-10T08:48:57;1.50;99.90
52275;DHT22;38228;50.940;4.024;2022-12-10T08:51:23;1.60;99.90
52275;DHT22;38228;50.940;4.024;2022-12-10T08:53:49;1.50;99.90
52275;DHT22;38228;50.940;4.024;2022-12-10T08:56:14;1.50;99.90
52275;DHT22;38228;50.940;4.024;2022-12-10T08:58:40;1.60;99.90
52275;DHT22;38228;50.940;4.024;2022-12-10T09:01:06;1.70;99.90
52275;DHT22;38228;50.940;4.024;2022-12-10T09:03:32;1.60;99.90
52275;DHT22;38228;50.940;4.024;2022-12-10T09:06:01;1.60;99.90
52275;DHT22;38228;50.940;4.024;2022-12-10T09:08:26;1.50;99.90
52275;DHT22;38228;50.940;4.024;2022-12-10T09:10:52;1.60;99.90
52275;DHT22;38228;50.940;4.024;2022-12-10T09:13:17;1.80;99.90
52275;DHT22;38228;50.940;4.024;2022-12-10T09:15:48;1.80;99.90
52275;DHT22;38228;50.940;4.024;2022-12-10T09:18:14;1.90;99.90
52275;DHT22;38228;50.940;4.024;2022-12-10T09:20:40;1.90;99.90
52275;DHT22;38228;50.940;4.024;2022-12-10T09:23:05;2.00;99.90
52275;DHT22;38228;50.940;4.024;2022-12-10T09:25:31;2.10;99.90
52275;DHT22;38228;50.940;4.024;2022-12-10T09:27:56;2.10;99.90
52275;DHT22;38228;50.940;4.024;2022-12-10T09:30:22;2.00;99.90
52275;DHT22;38228;50.940;4.024;2022-12-10T09:32:47;2.00;99.90
52275;DHT22;38228;50.940;4.024;2022-12-10T09:35:13;2.00;99.90
52275;DHT22;38228;50.940;4.024;2022-12-10T09:37:38;1.90;99.90
52275;DHT22;38228;50.940;4.024;2022-12-10T09:40:04;1.90;99.90
52275;DHT22;38228;50.940;4.024;2022-12-10T09:42:34;2.00;99.90
52275;DHT22;38228;50.940;4.024;2022-12-10T09:50:20;2.20;99.90
52275;DHT22;38228;50.940;4.024;2022-12-10T09:52:48;2.30;99.90
52275;DHT22;38228;50.940;4.024;2022-12-10T09:55:16;2.20;99.90
52275;DHT22;38228;50.940;4.024;2022-12-10T09:57:43;2.40;99.90
52275;DHT22;38228;50.940;4.024;2022-12-10T10:00:20;2.40;99.90
52275;DHT22;38228;50.940;4.024;2022-12-10T10:02:46;2.40;99.90
52275;DHT22;38228;50.940;4.024;2022-12-10T10:05:14;2.50;99.90
52275;DHT22;38228;50.940;4.024;2022-12-10T10:07:45;2.60;99.90
52275;DHT22;38228;50.940;4.024;2022-12-10T10:10:31;2.50;99.90
52275;DHT22;38228;50.940;4.024;2022-12-10T10:13:21;2.50;99.90
52275;DHT22;38228;50.940;4.024;2022-12-10T10:15:43;2.40;99.90
52275;DHT22;38228;50.940;4.024;2022-12-10T10:20:50;2.60;99.90
52275;DHT22;38228;50.940;4.024;2022-12-10T10:23:15;2.70;99.90
52275;DHT22;38228;50.940;4.024;2022-12-10T10:25:42;2.60;99.90
52275;DHT22;38228;50.940;4.024;2022-12-10T10:28:10;2.80;99.90
52275;DHT22;38228;50.940;4.024;2022-12-10T10:30:37;2.70;99.90
52275;DHT22;38228;50.940;4.024;2022-12-10T10:33:08;2.70;99.90
52275;DHT22;38228;50.940;4.024;2022-12-10T10:35:34;2.50;99.90
52275;DHT22;38228;50.940;4.024;2022-12-10T10:38:07;2.50;99.90
52275;DHT22;38228;50.940;4.024;2022-12-10T10:40:40;2.50;99.90
52275;DHT22;38228;50.940;4.024;2022-12-10T10:43:06;2.60;99.90
52275;DHT22;38228;50.940;4.024;2022-12-10T10:45:40;2.60;99.90
52275;DHT22;38228;50.940;4.024;2022-12-10T10:50:38;2.80;99.90
52275;DHT22;38228;50.940;4.024;2022-12-10T10:55:49;3.00;99.90
52275;DHT22;38228;50.940;4.024;2022-12-10T10:58:22;2.90;99.90
52275;DHT22;38228;50.940;4.024;2022-12-10T11:01:01;3.00;99.90
52275;DHT22;38228;50.940;4.024;2022-12-10T11:03:28;3.00;99.90
52275;DHT22;38228;50.940;4.024;2022-12-10T11:05:54;3.00;99.90
52275;DHT22;38228;50.940;4.024;2022-12-10T11:08:21;2.80;99.90
52275;DHT22;38228;50.940;4.024;2022-12-10T11:10:55;2.80;99.90
52275;DHT22;38228;50.940;4.024;2022-12-10T11:13:25;2.90;99.90
52275;DHT22;38228;50.940;4.024;2022-12-10T11:20:55;3.20;99.90
52275;DHT22;38228;50.940;4.024;2022-12-10T11:23:21;3.30;99.90
52275;DHT22;38228;50.940;4.024;2022-12-10T11:38:30;3.00;99.90
52275;DHT22;38228;50.940;4.024;2022-12-10T11:50:49;3.30;99.90
52275;DHT22;38228;50.940;4.024;2022-12-10T11:55:49;3.40;99.90
52275;DHT22;38228;50.940;4.024;2022-12-10T11:58:31;3.40;99.90
52275;DHT22;38228;50.940;4.024;2022-12-10T12:01:00;3.30;99.90
52275;DHT22;38228;50.940;4.024;2022-12-10T12:03:40;3.40;99.90
52275;DHT22;38228;50.940;4.024;2022-12-10T12:09:01;3.50;99.90
52275;DHT22;38228;50.940;4.024;2022-12-10T12:16:41;3.20;99.90
52275;DHT22;38228;50.940;4.024;2022-12-10T12:19:16;3.30;99.90
52275;DHT22;38228;50.940;4.024;2022-12-10T12:21:43;3.30;99.90
52275;DHT22;38228;50.940;4.024;2022-12-10T12:26:57;3.20;99.90
52275;DHT22;38228;50.940;4.024;2022-12-10T12:29:30;3.10;99.90
52275;DHT22;38228;50.940;4.024;2022-12-10T12:37:11;3.40;99.90
52275;DHT22;38228;50.940;4.024;2022-12-10T12:39:39;3.50;99.90
52275;DHT22;38228;50.940;4.024;2022-12-10T12:49:53;3.80;99.90
52275;DHT22;38228;50.940;4.024;2022-12-10T12:52:43;3.70;99.90
52275;DHT22;38228;50.940;4.024;2022-12-10T12:55:16;3.70;99.90
52275;DHT22;38228;50.940;4.024;2022-12-10T12:57:44;3.70;99.90
52275;DHT22;38228;50.940;4.024;2022-12-10T13:00:13;3.90;99.90
52275;DHT22;38228;50.940;4.024;2022-12-10T13:02:48;3.80;99.90
52275;DHT22;38228;50.940;4.024;2022-12-10T13:10:42;3.70;99.90
52275;DHT22;38228;50.940;4.024;2022-12-10T13:13:25;3.70;99.90
52275;DHT22;38228;50.940;4.024;2022-12-10T13:15:53;3.60;99.90
52275;DHT22;38228;50.940;4.024;2022-12-10T13:18:40;3.50;99.90
52275;DHT22;38228;50.940;4.024;2022-12-10T13:23:32;3.60;99.90
52275;DHT22;38228;50.940;4.024;2022-12-10T13:25:59;3.60;99.90
52275;DHT22;38228;50.940;4.024;2022-12-10T13:36:36;3.80;99.90
52275;DHT22;38228;50.940;4.024;2022-12-10T13:41:27;3.90;99.90
52275;DHT22;38228;50.940;4.024;2022-12-10T13:49:58;3.80;99.90
52275;DHT22;38228;50.940;4.024;2022-12-10T13:52:25;3.70;99.90
52275;DHT22;38228;50.940;4.024;2022-12-10T14:07:30;3.60;99.90
52275;DHT22;38228;50.940;4.024;2022-12-10T14:09:56;3.70;99.90
52275;DHT22;38228;50.940;4.024;2022-12-10T14:12:36;3.70;99.90
52275;DHT22;38228;50.940;4.024;2022-12-10T14:15:06;3.80;99.90
52275;DHT22;38228;50.940;4.024;2022-12-10T14:17:40;3.70;99.90
52275;DHT22;38228;50.940;4.024;2022-12-10T14:20:07;3.70;99.90
52275;DHT22;38228;50.940;4.024;2022-12-10T14:22:54;3.60;99.90
52275;DHT22;38228;50.940;4.024;2022-12-10T14:25:42;3.50;99.90
52275;DHT22;38228;50.940;4.024;2022-12-10T14:28:15;3.50;99.90
52275;DHT22;38228;50.940;4.024;2022-12-10T14:30:45;3.50;99.90
52275;DHT22;38228;50.940;4.024;2022-12-10T14:33:12;3.60;99.90
52275;DHT22;38228;50.940;4.024;2022-12-10T14:35:39;3.70;99.90
52275;DHT22;38228;50.940;4.024;2022-12-10T14:38:05;3.70;99.90
52275;DHT22;38228;50.940;4.024;2022-12-10T14:40:32;3.80;99.90
52275;DHT22;38228;50.940;4.024;2022-12-10T14:43:43;3.80;99.90
52275;DHT22;38228;50.940;4.024;2022-12-10T14:45:51;3.80;99.90
52275;DHT22;38228;50.940;4.024;2022-12-10T14:48:17;3.90;99.90
52275;DHT22;38228;50.940;4.024;2022-12-10T14:50:44;3.70;99.90
52275;DHT22;38228;50.940;4.024;2022-12-10T14:53:14;3.70;99.90
52275;DHT22;38228;50.940;4.024;2022-12-10T14:55:40;3.70;99.90
52275;DHT22;38228;50.940;4.024;2022-12-10T14:58:06;3.60;99.90
52275;DHT22;38228;50.940;4.024;2022-12-10T15:00:35;3.50;99.90
52275;DHT22;38228;50.940;4.024;2022-12-10T15:03:02;3.60;99.90
52275;DHT22;38228;50.940;4.024;2022-12-10T15:05:32;3.80;99.90
52275;DHT22;38228;50.940;4.024;2022-12-10T15:08:14;3.70;99.90
52275;DHT22;38228;50.940;4.024;2022-12-10T15:10:42;3.70;99.90
52275;DHT22;38228;50.940;4.024;2022-12-10T15:13:16;3.60;99.90
52275;DHT22;38228;50.940;4.024;2022-12-10T15:15:44;3.60;99.90
52275;DHT22;38228;50.940;4.024;2022-12-10T15:18:16;3.60;99.90
52275;DHT22;38228;50.940;4.024;2022-12-10T15:23:31;3.60;99.90
52275;DHT22;38228;50.940;4.024;2022-12-10T15:28:26;3.60;99.90
52275;DHT22;38228;50.940;4.024;2022-12-10T15:30:55;3.70;99.90
52275;DHT22;38228;50.940;4.024;2022-12-10T15:33:29;3.60;99.90
52275;DHT22;38228;50.940;4.024;2022-12-10T15:35:56;3.60;99.90
52275;DHT22;38228;50.940;4.024;2022-12-10T15:38:22;3.50;99.90
52275;DHT22;38228;50.940;4.024;2022-12-10T15:40:48;3.50;99.90
52275;DHT22;38228;50.940;4.024;2022-12-10T15:45:41;3.40;99.90
52275;DHT22;38228;50.940;4.024;2022-12-10T15:48:11;3.40;99.90
52275;DHT22;38228;50.940;4.024;2022-12-10T15:50:37;3.50;99.90
52275;DHT22;38228;50.940;4.024;2022-12-10T15:53:02;3.60;99.90
52275;DHT22;38228;50.940;4.024;2022-12-10T15:55:28;3.70;99.90
52275;DHT22;38228;50.940;4.024;2022-12-10T15:57:54;3.60;99.90
52275;DHT22;38228;50.940;4.024;2022-12-10T16:00:20;3.60;99.90
52275;DHT22;38228;50.940;4.024;2022-12-10T16:02:47;3.60;99.90
52275;DHT22;38228;50.940;4.024;2022-12-10T16:05:18;3.50;99.90
52275;DHT22;38228;50.940;4.024;2022-12-10T16:07:46;3.50;99.90
52275;DHT22;38228;50.940;4.024;2022-12-10T16:10:12;3.40;99.90
52275;DHT22;38228;50.940;4.024;2022-12-10T16:12:38;3.30;99.90
52275;DHT22;38228;50.940;4.024;2022-12-10T16:15:05;3.30;99.90
52275;DHT22;38228;50.940;4.024;2022-12-10T16:17:31;3.30;99.90
52275;DHT22;38228;50.940;4.024;2022-12-10T16:20:09;3.40;99.90
52275;DHT22;38228;50.940;4.024;2022-12-10T16:22:38;3.20;99.90
52275;DHT22;38228;50.940;4.024;2022-12-10T16:25:04;3.30;99.90
52275;DHT22;38228;50.940;4.024;2022-12-10T16:27:29;3.20;99.90
52275;DHT22;38228;50.940;4.024;2022-12-10T16:29:57;3.40;99.90
52275;DHT22;38228;50.940;4.024;2022-12-10T16:32:23;3.40;99.90
52275;DHT22;38228;50.940;4.024;2022-12-10T16:34:49;3.40;99.90
52275;DHT22;38228;50.940;4.024;2022-12-10T16:37:15;3.40;99.90
52275;DHT22;38228;50.940;4.024;2022-12-10T16:39:41;3.40;99.90
52275;DHT22;38228;50.940;4.024;2022-12-10T16:42:08;3.40;99.90
52275;DHT22;38228;50.940;4.024;2022-12-10T16:44:34;3.40;99.90
52275;DHT22;38228;50.940;4.024;2022-12-10T16:47:00;3.40;99.90
52275;DHT22;38228;50.940;4.024;2022-12-10T16:49:25;3.50;99.90
52275;DHT22;38228;50.940;4.024;2022-12-10T16:51:51;3.40;99.90
52275;DHT22;38228;50.940;4.024;2022-12-10T16:54:17;3.50;99.90
52275;DHT22;38228;50.940;4.024;2022-12-10T16:56:42;3.50;99.90
52275;DHT22;38228;50.940;4.024;2022-12-10T16:59:08;3.50;99.90
52275;DHT22;38228;50.940;4.024;2022-12-10T17:01:35;3.30;99.90
52275;DHT22;38228;50.940;4.024;2022-12-10T17:04:01;3.20;99.90
52275;DHT22;38228;50.940;4.024;2022-12-10T17:06:28;3.30;99.90
52275;DHT22;38228;50.940;4.024;2022-12-10T17:08:54;3.30;99.90
52275;DHT22;38228;50.940;4.024;2022-12-10T17:11:20;3.10;99.90
52275;DHT22;38228;50.940;4.024;2022-12-10T17:14:06;2.90;99.90
52275;DHT22;38228;50.940;4.024;2022-12-10T17:16:34;2.90;99.90
52275;DHT22;38228;50.940;4.024;2022-12-10T17:19:00;2.90;99.90
52275;DHT22;38228;50.940;4.024;2022-12-10T17:21:25;2.90;99.90
52275;DHT22;38228;50.940;4.024;2022-12-10T17:23:51;2.90;99.90
52275;DHT22;38228;50.940;4.024;2022-12-10T17:28:45;3.10;99.90
52275;DHT22;38228;50.940;4.024;2022-12-10T17:31:10;3.20;99.90
52275;DHT22;38228;50.940;4.024;2022-12-10T17:33:37;3.20;99.90
52275;DHT22;38228;50.940;4.024;2022-12-10T17:36:02;3.20;99.90
52275;DHT22;38228;50.940;4.024;2022-12-10T17:38:30;3.30;99.90
52275;DHT22;38228;50.940;4.024;2022-12-10T17:40:56;3.40;99.90
52275;DHT22;38228;50.940;4.024;2022-12-10T17:43:21;3.30;99.90
52275;DHT22;38228;50.940;4.024;2022-12-10T17:45:47;3.40;99.90
52275;DHT22;38228;50.940;4.024;2022-12-10T17:48:13;3.30;99.90
52275;DHT22;38228;50.940;4.024;2022-12-10T17:50:39;3.10;99.90
52275;DHT22;38228;50.940;4.024;2022-12-10T17:53:06;3.00;99.90
52275;DHT22;38228;50.940;4.024;2022-12-10T17:55:37;3.10;99.90
52275;DHT22;38228;50.940;4.024;2022-12-10T17:58:03;3.10;99.90
52275;DHT22;38228;50.940;4.024;2022-12-10T18:00:31;3.10;99.90
52275;DHT22;38228;50.940;4.024;2022-12-10T18:02:56;3.20;99.90